Overview Statistics Trail Chart Weather Telemetry Raw packets
 

This is the latest recevied weather packets stored in our database for station/object KF7SOJ. If no packets are shown the sender has not sent any weather packets the latest 10 day(s).

<< 38 39 40 41 42 43 44 >>
Time Temp. Humidity Pressure Rain* Wind** Luminosity Snow
1788355032 15.56° C 61% 927.1 hPa 0 mm - 22 W/m² -
1788354728 15.56° C 60% 927.2 hPa 0 mm - 25 W/m² -
1788354423 15° C 62% 927 hPa 0 mm - 21 W/m² -
1788354119 15° C 62% 927 hPa 0 mm - 20 W/m² -
1788353813 15° C 61% 927.2 hPa 0 mm - 16 W/m² -
1788353510 15° C 62% 927.1 hPa 0 mm - 13 W/m² -
1788353227 15° C 61% 927 hPa 0 mm - 10 W/m² -
1788352906 15° C 62% 927.1 hPa 0 mm - 7 W/m² -
1788352602 15° C 61% 927 hPa 0 mm - 5 W/m² -
1788352297 15° C 62% 927.1 hPa 0 mm - 2 W/m² -
1788351996 15° C 61% 927.1 hPa 0 mm - 1 W/m² -
1788351692 15° C 62% 927.2 hPa 0 mm - 1 W/m² -
1788351386 14.44° C 64% 927.2 hPa 0 mm - 0 W/m² -
1788351081 14.44° C 64% 927.1 hPa 0 mm - 0 W/m² -
1788350777 13.89° C 65% 927.5 hPa 0 mm - 0 W/m² -
1788350477 13.33° C 68% 927.5 hPa 0 mm - 0 W/m² -
1788350168 13.89° C 67% 927.4 hPa 0 mm - 0 W/m² -
1788349864 13.89° C 66% 927.6 hPa 0 mm - 0 W/m² -
1788349560 13.89° C 66% 927.5 hPa 0 mm - 0 W/m² -
1788349259 14.44° C 62% 927.5 hPa 0 mm - 0 W/m² -
1788348955 15.56° C 58% 927.5 hPa 0 mm - 0 W/m² -
1788348650 16.67° C 56% 927.3 hPa 0 mm - 0 W/m² -
1788348346 16.67° C 55% 926.9 hPa 0 mm - 0 W/m² -
1788348042 16.67° C 54% 927 hPa 0 mm - 0 W/m² -
1788347738 16.67° C 56% 927.1 hPa 0 mm - 0 W/m² -

* Rain latest hour (hover to see other rain measurements)
** Current wind speed in m/s (hover to see current wind gust speed)